Observations for Trim Market St
| Time | AQI | Temp °C | Hum % | Pres Pa | CO μg/m³ | H₂S μg/m³ | NO μg/m³ | NO₂ μg/m³ | O₃ μg/m³ | SO₂ μg/m³ | PM1 μg/m³ | PM2.5 μg/m³ | PM10 μg/m³ |
|---|---|---|---|---|---|---|---|---|---|---|---|---|---|
| Tuesday 25 August 2026 | |||||||||||||
| 14:24 | 2 | 26.7 | 39 | 65,778 | 0 | 1.55 | 0.89 | 22.5 | 88.96 | 0 | 0.71 | 4 | 4.4 |
| 14:23 | 2 | 26.7 | 39 | 65,786 | 0 | 5.2 | 0.91 | 28.15 | 101.51 | 0 | 2.14 | 5.59 | 5.9 |
| 14:22 | 2 | 26.6 | 38 | 65,795 | 0 | 3.42 | 0.95 | 23.33 | 119.49 | 0 | 1.43 | 4.01 | 4.41 |
| 14:21 | 2 | 26.6 | 38 | 65,807 | 0 | 3.71 | 0.94 | 23.02 | 99.57 | 0 | 1.43 | 5.61 | 5.9 |
| 14:20 | 2 | 26.6 | 38 | 65,791 | 0 | 3.71 | 0.9 | 24.41 | 105.87 | 0 | 1.43 | 5.08 | 5.08 |
| 14:19 | 2 | 26.6 | 38 | 65,807 | 0 | 3.79 | 0.94 | 22.07 | 94.6 | 0 | 2.85 | 5.62 | 5.89 |
| 14:18 | 2 | 26.6 | 38 | 65,797 | 0 | 5.53 | 0.91 | 26.93 | 113.23 | 0 | 2.14 | 4.56 | 5.08 |
| 14:17 | 2 | 26.6 | 38 | 65,784 | 0 | 4.17 | 0.87 | 21.91 | 113.13 | 0 | 2.14 | 5.1 | 6.71 |
| 14:16 | 2 | 26.7 | 38 | 65,762 | 0 | 1.76 | 0.92 | 20.46 | 114.77 | 0 | 2.85 | 5.64 | 7.53 |
| 14:15 | 2 | 26.7 | 38 | 65,766 | 0 | 0.56 | 0.94 | 18.26 | 120.11 | 0 | 1.43 | 5.11 | 6.71 |
| 14:14 | 2 | 26.7 | 38 | 65,799 | 0 | 0 | 0.87 | 17.89 | 114.43 | 0 | 0.71 | 4.05 | 4.45 |
| 14:13 | 2 | 26.8 | 38 | 65,784 | 0 | 2.08 | 0.84 | 17.97 | 101.52 | 0 | 2.85 | 6.18 | 6.71 |
| 14:07 | 2 | 27 | 37 | 65,766 | 0 | 1.93 | 0.92 | 19.2 | 121.43 | 0 | 2.14 | 5.13 | 5.65 |
| 14:06 | 2 | 27.1 | 37 | 65,793 | 0 | 1.64 | 0.84 | 18.68 | 127.53 | 0 | 2.14 | 4.61 | 5.07 |
| 14:05 | 2 | 27.1 | 37 | 65,805 | 0 | 0 | 0.87 | 15.7 | 95.51 | 0 | 2.14 | 5.14 | 5.66 |
| 14:02 | 2 | 27.4 | 37 | 65,831 | 0 | 0.45 | 0.93 | 16.35 | 124.78 | 0 | 2.14 | 5.16 | 5.67 |
| 13:55 | 2 | 28.2 | 35 | 65,882 | 0 | 0 | 0.89 | 22.94 | 104.99 | 0 | 1.43 | 4.68 | 5.03 |
| 13:54 | 2 | 28.3 | 35 | 65,912 | 0 | 0 | 0.88 | 19.45 | 118.67 | 0 | 1.43 | 5.22 | 5.75 |
| 13:53 | 2 | 28.4 | 35 | 65,918 | 0 | 0 | 0.92 | 18.33 | 103.65 | 0 | 1.43 | 4.16 | 5.02 |
| 13:52 | 2 | 28.5 | 35 | 65,925 | 0 | 0 | 0.93 | 21.14 | 102.26 | 0 | 0 | 4.17 | 4.58 |